Terminal Aerodrome Forecast
Issued by NWS

Home | Current Version | Previous Version | Text Only | Print | Product List | Glossary On
Versions: 1 2 3 4 5 6 7 8 9 10 11 12 13 14 15 16 17 18 19 20
000
FTUS45 KBYZ 221132
TAFLVM
TAF
KLVM 221132Z 2212/2312 22025G49KT P6SM SCT080
     FM221500 22020G30KT P6SM -SHSN BKN050
     FM222200 24016G26KT P6SM VCSH BKN070
     FM230700 22024G35KT P6SM SCT060 BKN120=

USA.gov is the U.S. government's official web portal to all federal, state and local government web resources and services.